createdAt,value
2019-05-10T00:01:55.322Z,98119.61
2019-05-10T00:04:40.428Z,98118.59
2019-05-10T00:07:25.912Z,98113.78
2019-05-10T00:09:52.312Z,98114.80
2019-05-10T00:12:20.690Z,98109.14
2019-05-10T00:14:49.203Z,98101.84
2019-05-10T00:17:17.880Z,98108.98
2019-05-10T00:19:44.833Z,98107.15
2019-05-10T00:22:11.740Z,98106.46
2019-05-10T00:24:38.603Z,98105.97
2019-05-10T00:27:05.248Z,98107.14
2019-05-10T00:29:32.046Z,98101.52
2019-05-10T00:31:58.720Z,98106.65
2019-05-10T00:34:25.317Z,98100.36
2019-05-10T00:36:51.895Z,98104.84
2019-05-10T00:39:19.569Z,98099.20
2019-05-10T00:41:46.412Z,98098.39
2019-05-10T00:44:13.177Z,98099.19
2019-05-10T00:46:39.877Z,98097.87
2019-05-10T00:49:06.624Z,98099.53
2019-05-10T00:51:33.151Z,98099.84
2019-05-10T00:53:59.713Z,98095.55
2019-05-10T00:56:28.063Z,98100.19
2019-05-10T00:58:54.709Z,98096.53
2019-05-10T01:01:21.864Z,98097.55
2019-05-10T01:03:48.600Z,98100.70
2019-05-10T01:06:15.322Z,98098.05
2019-05-10T01:08:42.070Z,98100.40
2019-05-10T01:11:08.923Z,98099.05
2019-05-10T01:13:35.370Z,98103.52
2019-05-10T01:16:02.022Z,98104.18
2019-05-10T01:18:28.561Z,98102.20
2019-05-10T01:20:55.507Z,98102.50
2019-05-10T01:23:22.218Z,98105.99
2019-05-10T01:25:48.962Z,98106.83
2019-05-10T01:28:15.509Z,98110.14
2019-05-10T01:30:42.306Z,98106.83
2019-05-10T01:33:09.142Z,98101.85
2019-05-10T01:35:35.802Z,98100.22
2019-05-10T01:38:02.614Z,98105.70
2019-05-10T01:40:29.162Z,98099.20
2019-05-10T01:42:55.922Z,98105.34
2019-05-10T01:45:22.667Z,98097.07
2019-05-10T01:47:49.183Z,98102.52
2019-05-10T01:50:15.825Z,98097.20
2019-05-10T01:52:42.343Z,98102.19
2019-05-10T01:55:08.988Z,98107.14
2019-05-10T01:57:35.865Z,98097.18
2019-05-10T02:00:06.117Z,98102.48
2019-05-10T02:02:33.265Z,98103.98
2019-05-10T02:04:59.917Z,98110.44
2019-05-10T02:07:26.541Z,98110.12
2019-05-10T02:09:53.165Z,98111.61
2019-05-10T02:12:20.568Z,98117.22
2019-05-10T02:14:47.207Z,98114.91
2019-05-10T02:17:13.846Z,98112.08
2019-05-10T02:19:40.383Z,98112.41
2019-05-10T02:22:06.945Z,98111.25
2019-05-10T02:24:33.426Z,98110.77
2019-05-10T02:27:00.050Z,98114.57
2019-05-10T02:29:26.564Z,98114.74
2019-05-10T02:31:53.166Z,98111.43
2019-05-10T02:34:19.654Z,98108.61
2019-05-10T02:36:46.186Z,98109.79
2019-05-10T02:39:12.854Z,98105.16
2019-05-10T02:41:39.579Z,98104.81
2019-05-10T02:44:06.344Z,98111.27
2019-05-10T02:46:33.106Z,98119.08
2019-05-10T02:48:59.947Z,98109.80
2019-05-10T02:51:27.190Z,98115.24
2019-05-10T02:53:53.866Z,98114.27
2019-05-10T02:56:30.215Z,98115.09
2019-05-10T02:58:53.842Z,98113.91
2019-05-10T03:01:25.949Z,98119.05
2019-05-10T03:03:55.758Z,98116.04
2019-05-10T03:06:25.141Z,98119.52
2019-05-10T03:08:52.937Z,98122.16
2019-05-10T03:11:19.678Z,98126.27
2019-05-10T03:13:49.915Z,98123.63
2019-05-10T03:16:22.909Z,98119.66
2019-05-10T03:18:52.752Z,98125.73
2019-05-10T03:21:22.327Z,98126.41
2019-05-10T03:23:49.734Z,98120.44
2019-05-10T03:26:16.605Z,98127.17
2019-05-10T03:28:43.805Z,98126.65
2019-05-10T03:31:11.459Z,98133.06
2019-05-10T03:33:37.986Z,98128.43
2019-05-10T03:36:04.664Z,98129.73
2019-05-10T03:38:31.372Z,98134.35
2019-05-10T03:40:58.156Z,98137.67
2019-05-10T03:43:24.716Z,98136.48
2019-05-10T03:45:51.301Z,98139.78
2019-05-10T03:48:18.142Z,98139.78
2019-05-10T03:50:44.734Z,98147.05
2019-05-10T03:53:11.387Z,98147.70
2019-05-10T03:55:38.031Z,98151.83
2019-05-10T03:58:05.054Z,98146.97
2019-05-10T04:00:31.953Z,98152.91
2019-05-10T04:02:58.707Z,98150.08
2019-05-10T04:05:25.158Z,98151.20
2019-05-10T04:07:52.030Z,98154.02
2019-05-10T04:10:20.970Z,98154.31
2019-05-10T04:12:47.498Z,98162.60
2019-05-10T04:15:14.398Z,98159.95
2019-05-10T04:17:41.130Z,98172.89
2019-05-10T04:20:08.609Z,98168.66
2019-05-10T04:22:35.253Z,98169.02
2019-05-10T04:25:03.383Z,98170.36
2019-05-10T04:27:32.861Z,98174.84
2019-05-10T04:29:58.709Z,98171.09
2019-05-10T04:32:25.637Z,98174.61
2019-05-10T04:34:52.300Z,98171.33
2019-05-10T04:37:18.856Z,98173.84
2019-05-10T04:39:45.711Z,98179.48
2019-05-10T04:42:12.302Z,98178.18
2019-05-10T04:44:38.922Z,98175.92
2019-05-10T04:47:05.681Z,98182.24
2019-05-10T04:49:32.456Z,98181.30
2019-05-10T04:51:59.160Z,98183.99
2019-05-10T04:54:25.874Z,98183.02
2019-05-10T04:56:52.555Z,98182.39
2019-05-10T04:59:19.472Z,98185.07
2019-05-10T05:01:46.172Z,98184.75
2019-05-10T05:04:12.879Z,98188.25
2019-05-10T05:06:39.374Z,98186.45
2019-05-10T05:09:06.145Z,98193.80
2019-05-10T05:11:32.820Z,98190.50
2019-05-10T05:13:59.543Z,98184.86
2019-05-10T05:16:26.267Z,98190.84
2019-05-10T05:18:53.001Z,98190.86
2019-05-10T05:21:22.461Z,98192.37
2019-05-10T05:23:48.911Z,98190.03
2019-05-10T05:26:15.546Z,98193.17
2019-05-10T05:28:42.289Z,98196.77
2019-05-10T05:31:09.037Z,98191.92
2019-05-10T05:33:35.649Z,98196.59
2019-05-10T05:36:02.639Z,98198.94
2019-05-10T05:38:29.525Z,98193.66
2019-05-10T05:40:56.105Z,98194.28
2019-05-10T05:43:22.766Z,98190.73
2019-05-10T05:45:49.422Z,98190.64
2019-05-10T05:48:21.184Z,98192.30
2019-05-10T05:50:44.681Z,98198.41
2019-05-10T05:53:11.449Z,98199.83
2019-05-10T05:55:38.064Z,98202.66
2019-05-10T05:58:07.053Z,98205.41
2019-05-10T06:00:37.741Z,98206.16
2019-05-10T06:03:02.010Z,98207.21
2019-05-10T06:05:34.311Z,98209.23
2019-05-10T06:07:57.163Z,98208.52
2019-05-10T06:10:23.688Z,98209.73
2019-05-10T06:12:52.716Z,98203.34
2019-05-10T06:15:23.009Z,98202.27
2019-05-10T06:17:56.170Z,98208.77
2019-05-10T06:20:16.148Z,98208.47
2019-05-10T06:22:43.953Z,98203.36
2019-05-10T06:25:11.989Z,98211.15
2019-05-10T06:27:40.861Z,98217.61
2019-05-10T06:30:08.116Z,98216.53
2019-05-10T06:32:34.751Z,98211.30
2019-05-10T06:35:01.675Z,98213.27
2019-05-10T06:37:31.308Z,98206.64
2019-05-10T06:39:57.214Z,98210.95
2019-05-10T06:42:28.879Z,98210.53
2019-05-10T06:44:52.180Z,98210.64
2019-05-10T06:47:21.819Z,98200.28
2019-05-10T06:49:52.042Z,98202.95
2019-05-10T06:52:16.707Z,98209.42
2019-05-10T06:54:43.376Z,98212.93
2019-05-10T06:57:11.148Z,98219.85
2019-05-10T06:59:38.775Z,98208.84
2019-05-10T07:02:05.576Z,98217.37
2019-05-10T07:04:37.818Z,98214.77
2019-05-10T07:07:00.995Z,98214.09
2019-05-10T07:09:27.984Z,98205.05
2019-05-10T07:11:54.603Z,98203.39
2019-05-10T07:14:25.647Z,98203.06
2019-05-10T07:16:56.418Z,98209.42
2019-05-10T07:19:20.267Z,98215.98
2019-05-10T07:21:51.022Z,98215.83
2019-05-10T07:24:18.183Z,98200.55
2019-05-10T07:26:44.274Z,98224.75
2019-05-10T07:29:11.127Z,98217.87
2019-05-10T07:31:38.066Z,98222.88
2019-05-10T07:34:09.819Z,98227.00
2019-05-10T07:36:35.398Z,98220.36
2019-05-10T07:39:08.392Z,98223.80
2019-05-10T07:41:34.192Z,98225.75
2019-05-10T07:44:07.504Z,98221.50
2019-05-10T07:46:31.359Z,98226.30
2019-05-10T07:48:57.994Z,98218.55
2019-05-10T07:51:28.856Z,98210.48
2019-05-10T07:53:57.121Z,98208.61
2019-05-10T07:56:22.055Z,98215.67
2019-05-10T07:58:48.718Z,98221.08
2019-05-10T08:01:15.404Z,98217.03
2019-05-10T08:03:48.158Z,98221.14
2019-05-10T08:06:10.602Z,98221.14
2019-05-10T08:08:39.262Z,98223.84
2019-05-10T08:11:08.442Z,98211.05
2019-05-10T08:13:35.290Z,98222.52
2019-05-10T08:16:05.530Z,98223.63
2019-05-10T08:18:32.228Z,98221.09
2019-05-10T08:21:02.439Z,98214.95
2019-05-10T08:23:28.159Z,98221.17
2019-05-10T08:25:55.180Z,98225.75
2019-05-10T08:28:22.841Z,98223.03
2019-05-10T08:30:53.655Z,98232.23
2019-05-10T08:33:18.980Z,98231.95
2019-05-10T08:35:46.538Z,98231.95
2019-05-10T08:38:13.470Z,98231.88
2019-05-10T08:40:42.547Z,98221.28
2019-05-10T08:43:13.988Z,98224.38
2019-05-10T08:45:44.084Z,98237.48
2019-05-10T08:48:07.443Z,98237.48
2019-05-10T08:50:48.802Z,98240.34
2019-05-10T08:53:10.462Z,98240.64
2019-05-10T08:55:32.065Z,98233.85
2019-05-10T08:57:58.469Z,98241.37
2019-05-10T09:00:41.590Z,98239.15
2019-05-10T09:02:54.023Z,98241.17
2019-05-10T09:05:28.609Z,98249.04
2019-05-10T09:07:52.137Z,98249.98
2019-05-10T09:10:18.892Z,98257.09
2019-05-10T09:12:53.682Z,98256.44
2019-05-10T09:15:14.710Z,98257.98
2019-05-10T09:17:42.825Z,98256.59
2019-05-10T09:20:11.955Z,98254.86
2019-05-10T09:22:39.362Z,98256.41
2019-05-10T09:25:07.552Z,98265.60
2019-05-10T09:27:34.325Z,98261.13
2019-05-10T09:30:02.919Z,98271.22
2019-05-10T09:32:33.331Z,98265.54
2019-05-10T09:35:06.911Z,98270.15
2019-05-10T09:37:28.249Z,98265.92
2019-05-10T09:40:05.567Z,98256.59
2019-05-10T09:42:31.890Z,98256.00
2019-05-10T09:44:53.916Z,98265.30
2019-05-10T09:47:22.219Z,98267.65
2019-05-10T09:49:54.199Z,98268.70
2019-05-10T09:52:18.870Z,98264.23
2019-05-10T09:54:49.199Z,98263.64
2019-05-10T09:57:14.644Z,98261.39
2019-05-10T09:59:41.477Z,98269.91
2019-05-10T10:02:14.628Z,98265.96
2019-05-10T10:04:37.265Z,98267.33
2019-05-10T10:07:04.259Z,98266.14
2019-05-10T10:09:37.355Z,98267.01
2019-05-10T10:12:03.243Z,98258.18
2019-05-10T10:14:38.179Z,98257.20
2019-05-10T10:17:02.956Z,98255.45
2019-05-10T10:19:27.845Z,98259.19
2019-05-10T10:21:54.778Z,98263.66
2019-05-10T10:24:21.454Z,98261.98
2019-05-10T10:26:48.354Z,98262.96
2019-05-10T10:29:17.321Z,98257.55
2019-05-10T10:31:52.986Z,98255.69
2019-05-10T10:34:12.816Z,98250.05
2019-05-10T10:36:43.777Z,98257.33
2019-05-10T10:39:08.275Z,98254.25
2019-05-10T10:41:35.360Z,98261.34
2019-05-10T10:44:02.057Z,98262.84
2019-05-10T10:46:29.072Z,98267.81
2019-05-10T10:48:55.904Z,98274.84
2019-05-10T10:51:26.676Z,98280.39
2019-05-10T10:53:54.512Z,98276.94
2019-05-10T10:56:19.874Z,98284.27
2019-05-10T10:58:49.733Z,98280.02
2019-05-10T11:01:21.511Z,98276.92
2019-05-10T11:03:48.897Z,98273.61
2019-05-10T11:06:16.932Z,98277.45
2019-05-10T11:08:44.991Z,98270.83
2019-05-10T11:11:11.700Z,98268.54
2019-05-10T11:13:43.786Z,98263.57
2019-05-10T11:16:10.878Z,98269.20
2019-05-10T11:18:35.054Z,98278.07
2019-05-10T11:21:02.157Z,98276.56
2019-05-10T11:23:34.003Z,98274.66
2019-05-10T11:25:57.763Z,98270.89
2019-05-10T11:28:24.261Z,98266.61
2019-05-10T11:30:51.260Z,98274.73
2019-05-10T11:41:42.158Z,98263.64
2019-05-10T11:44:11.929Z,98263.11
2019-05-10T11:46:37.601Z,98269.17
2019-05-10T11:49:04.499Z,98266.21
2019-05-10T11:51:31.693Z,98268.31
2019-05-10T11:53:59.766Z,98265.50
2019-05-10T11:56:27.739Z,98258.97
2019-05-10T11:58:55.936Z,98258.97
2019-05-10T12:01:22.672Z,98257.82
2019-05-10T12:03:49.604Z,98257.34
2019-05-10T12:06:16.557Z,98257.34
2019-05-10T12:08:43.102Z,98264.51
2019-05-10T12:11:27.196Z,98265.61
2019-05-10T12:13:38.682Z,98262.80
2019-05-10T12:16:06.605Z,98273.22
2019-05-10T12:18:36.069Z,98272.45
2019-05-10T12:21:09.329Z,98269.67
2019-05-10T12:23:31.691Z,98278.66
2019-05-10T12:27:12.999Z,98273.45
2019-05-10T12:28:29.012Z,98274.52
2019-05-10T12:30:55.813Z,98280.69
2019-05-10T12:33:25.905Z,98282.52
2019-05-10T12:35:51.301Z,98282.91
2019-05-10T12:38:18.312Z,98301.31
2019-05-10T12:40:46.472Z,98293.28
2019-05-10T12:43:13.139Z,98296.73
2019-05-10T12:45:41.798Z,98297.71
2019-05-10T12:48:08.116Z,98308.17
2019-05-10T12:50:34.749Z,98316.19
2019-05-10T12:53:08.365Z,98315.09
2019-05-10T12:55:30.177Z,98320.17
2019-05-10T12:57:56.952Z,98319.39
2019-05-10T13:00:23.658Z,98332.64
2019-05-10T13:02:52.004Z,98326.91
2019-05-10T13:05:18.865Z,98338.20
2019-05-10T13:07:45.679Z,98339.86
2019-05-10T13:10:12.691Z,98340.86
2019-05-10T13:12:44.295Z,98349.40
2019-05-10T13:15:08.906Z,98354.63
2019-05-10T13:17:35.484Z,98351.55
2019-05-10T13:20:05.852Z,98354.51
2019-05-10T13:22:37.224Z,98357.89
2019-05-10T13:25:01.068Z,98364.88
2019-05-10T13:27:27.934Z,98366.47
2019-05-10T13:29:54.577Z,98367.05
2019-05-10T13:32:22.405Z,98369.75
2019-05-10T13:34:49.482Z,98378.57
2019-05-10T13:37:23.289Z,98377.23
2019-05-10T13:39:46.418Z,98380.50
2019-05-10T13:42:13.013Z,98383.77
2019-05-10T13:44:43.021Z,98389.75
2019-05-10T13:47:08.608Z,98391.48
2019-05-10T13:49:35.508Z,98389.27
2019-05-10T13:52:02.438Z,98390.68
2019-05-10T13:54:31.292Z,98392.52
2019-05-10T13:56:58.115Z,98396.66
2019-05-10T13:59:25.092Z,98398.86
2019-05-10T14:01:52.022Z,98399.66
2019-05-10T14:04:18.695Z,98404.27
2019-05-10T14:06:45.356Z,98403.28
2019-05-10T14:09:11.875Z,98404.84
2019-05-10T14:11:40.500Z,98403.53
2019-05-10T14:14:07.813Z,98411.32
2019-05-10T14:16:34.362Z,98411.20
2019-05-10T14:19:00.897Z,98413.16
2019-05-10T14:21:27.496Z,98411.48
2019-05-10T14:23:56.808Z,98417.38
2019-05-10T14:26:24.128Z,98426.92
2019-05-10T14:28:53.117Z,98438.06
2019-05-10T14:31:20.108Z,98449.31
2019-05-10T14:33:49.767Z,98456.44
2019-05-10T14:36:15.008Z,98464.70
2019-05-10T14:38:41.580Z,98468.30
2019-05-10T14:41:10.711Z,98470.37
2019-05-10T14:43:37.135Z,98475.52
2019-05-10T14:46:03.939Z,98481.42
2019-05-10T14:48:34.765Z,98475.24
2019-05-10T14:51:02.910Z,98475.75
2019-05-10T14:53:28.493Z,98479.16
2019-05-10T14:55:55.898Z,98478.31
2019-05-10T14:58:23.447Z,98477.17
2019-05-10T15:00:50.393Z,98477.35
2019-05-10T15:03:16.959Z,98490.41
2019-05-10T15:05:43.557Z,98490.50
2019-05-10T15:08:10.719Z,98491.14
2019-05-10T15:10:39.374Z,98502.56
2019-05-10T15:13:05.963Z,98504.86
2019-05-10T15:15:37.324Z,98511.25
2019-05-10T15:18:03.425Z,98517.17
2019-05-10T15:20:30.235Z,98520.65
2019-05-10T15:22:57.115Z,98523.48
2019-05-10T15:25:23.666Z,98517.28
2019-05-10T15:27:54.674Z,98524.75
2019-05-10T15:30:19.487Z,98529.89
2019-05-10T15:32:47.898Z,98527.07
2019-05-10T15:35:14.629Z,98527.73
2019-05-10T15:37:46.323Z,98528.82
2019-05-10T15:40:13.211Z,98529.47
2019-05-10T15:42:39.909Z,98532.48
2019-05-10T15:45:12.125Z,98532.61
2019-05-10T15:47:50.101Z,98532.08
2019-05-10T15:50:06.091Z,98536.66
2019-05-10T15:52:32.811Z,98534.73
2019-05-10T15:54:59.794Z,98547.56
2019-05-10T15:57:26.292Z,98549.11
2019-05-10T15:59:56.453Z,98551.17
2019-05-10T16:02:21.715Z,98548.25
2019-05-10T16:04:48.401Z,98550.75
2019-05-10T16:07:16.617Z,98545.50
2019-05-10T16:09:44.543Z,98550.69
2019-05-10T16:12:11.369Z,98556.29
2019-05-10T16:14:39.703Z,98550.55
2019-05-10T16:17:10.266Z,98551.06
2019-05-10T16:19:35.700Z,98552.27
2019-05-10T16:22:05.747Z,98550.48
2019-05-10T16:24:32.341Z,98553.50
2019-05-10T16:27:01.849Z,98549.48
2019-05-10T16:29:28.534Z,98554.94
2019-05-10T16:31:55.040Z,98548.91
2019-05-10T16:34:26.431Z,98560.80
2019-05-10T16:36:50.451Z,98561.13
2019-05-10T16:39:17.211Z,98564.95
2019-05-10T16:41:44.046Z,98562.31
2019-05-10T16:44:10.648Z,98564.31
2019-05-10T16:46:37.449Z,98563.70
2019-05-10T16:49:10.151Z,98572.11
2019-05-10T16:51:33.171Z,98574.38
2019-05-10T16:53:59.763Z,98579.62
2019-05-10T16:56:28.171Z,98579.95
2019-05-10T16:58:55.082Z,98579.05
2019-05-10T17:01:27.527Z,98585.73
2019-05-10T17:03:59.860Z,98589.17
2019-05-10T17:06:21.115Z,98588.17
2019-05-10T17:08:47.794Z,98592.56
2019-05-10T17:11:14.494Z,98591.17
2019-05-10T17:13:43.096Z,98595.06
2019-05-10T17:16:11.551Z,98596.65
2019-05-10T17:18:38.801Z,98596.95
2019-05-10T17:21:05.631Z,98595.47
2019-05-10T17:23:32.464Z,98599.56
2019-05-10T17:26:00.515Z,98599.59
2019-05-10T17:28:29.586Z,98602.55
2019-05-10T17:30:59.820Z,98598.80
2019-05-10T17:33:25.827Z,98604.10
2019-05-10T17:36:07.208Z,98607.92
2019-05-10T17:38:21.044Z,98608.30
2019-05-10T17:40:50.028Z,98610.12
2019-05-10T17:43:20.591Z,98616.78
2019-05-10T17:45:45.629Z,98613.95
2019-05-10T17:48:12.182Z,98610.47
2019-05-10T17:50:38.732Z,98611.49
2019-05-10T17:53:05.323Z,98611.73
2019-05-10T17:55:31.947Z,98620.92
2019-05-10T17:57:58.727Z,98619.44
2019-05-10T18:00:25.843Z,98614.92
2019-05-10T18:02:52.530Z,98619.03
2019-05-10T18:05:19.359Z,98614.17
2019-05-10T18:07:46.462Z,98617.88
2019-05-10T18:10:13.311Z,98617.55
2019-05-10T18:12:40.682Z,98614.30
2019-05-10T18:15:09.259Z,98622.59
2019-05-10T18:17:36.085Z,98614.09
2019-05-10T18:20:05.646Z,98614.92
2019-05-10T18:22:42.242Z,98617.62
2019-05-10T18:25:01.857Z,98618.95
2019-05-10T18:27:29.882Z,98620.80
2019-05-10T18:29:56.713Z,98616.78
2019-05-10T18:32:23.292Z,98631.32
2019-05-10T18:34:50.065Z,98632.00
2019-05-10T18:37:21.834Z,98641.86
2019-05-10T18:39:47.228Z,98647.02
2019-05-10T18:42:18.765Z,98647.66
2019-05-10T18:44:45.817Z,98649.01
2019-05-10T18:47:13.021Z,98651.72
2019-05-10T18:49:39.868Z,98652.88
2019-05-10T18:52:06.752Z,98656.73
2019-05-10T18:54:33.705Z,98660.86
2019-05-10T18:57:04.791Z,98664.36
2019-05-10T18:59:31.610Z,98662.38
2019-05-10T19:02:00.566Z,98665.22
2019-05-10T19:04:29.932Z,98669.34
2019-05-10T19:07:09.334Z,98668.53
2019-05-10T19:09:25.443Z,98670.67
2019-05-10T19:11:52.259Z,98670.56
2019-05-10T19:14:23.895Z,98674.23
2019-05-10T19:16:47.989Z,98681.08
2019-05-10T19:19:16.442Z,98683.11
2019-05-10T19:21:43.195Z,98684.45
2019-05-10T19:24:09.987Z,98688.97
2019-05-10T19:26:37.018Z,98685.84
2019-05-10T19:29:05.237Z,98689.84
2019-05-10T19:31:38.219Z,98692.85
2019-05-10T19:37:00.428Z,98693.19
2019-05-10T19:39:28.652Z,98699.36
2019-05-10T19:42:03.074Z,98705.86
2019-05-10T19:44:23.913Z,98705.68
2019-05-10T19:46:50.564Z,98709.20
2019-05-10T19:56:11.075Z,98710.86
2019-05-10T19:58:37.945Z,98720.34
2019-05-10T20:01:04.767Z,98723.01
2019-05-10T20:03:32.013Z,98719.52
2019-05-10T20:05:58.870Z,98722.86
2019-05-10T20:08:25.426Z,98723.52
2019-05-10T20:10:52.108Z,98725.16
2019-05-10T20:13:19.045Z,98733.17
2019-05-10T20:15:45.608Z,98736.00
2019-05-10T20:18:12.390Z,98733.15
2019-05-10T20:20:39.090Z,98738.47
2019-05-10T20:23:05.625Z,98743.44
2019-05-10T20:25:32.236Z,98740.77
2019-05-10T20:28:10.206Z,98747.45
2019-05-10T20:53:16.164Z,98755.46
2019-05-10T20:55:43.076Z,98749.16
2019-05-10T20:58:30.335Z,98756.19
2019-05-10T21:00:57.202Z,98759.35
2019-05-10T21:03:23.885Z,98757.55
2019-05-10T21:05:50.703Z,98758.55
2019-05-10T21:08:17.642Z,98759.21
2019-05-10T21:10:44.351Z,98764.52
2019-05-10T21:16:10.205Z,98772.02
2019-05-10T21:18:36.928Z,98773.52
2019-05-10T21:21:03.690Z,98767.52
2019-05-10T21:23:30.309Z,98768.85
2019-05-10T21:25:56.967Z,98769.88
2019-05-10T21:28:52.642Z,98773.52
2019-05-10T21:31:19.319Z,98775.34
2019-05-10T21:37:13.330Z,98770.02
2019-05-10T21:40:00.699Z,98775.84
2019-05-10T21:42:27.414Z,98782.19
2019-05-10T21:44:54.215Z,98790.85
2019-05-10T21:47:20.822Z,98788.54
2019-05-10T21:52:30.731Z,98787.88
2019-05-10T21:54:57.263Z,98792.22
2019-05-10T21:57:24.046Z,98794.22
2019-05-10T21:59:50.958Z,98796.05
2019-05-10T22:02:17.887Z,98787.55
2019-05-10T22:04:47.821Z,98793.88
2019-05-10T22:07:13.061Z,98799.55
2019-05-10T22:09:39.823Z,98798.89
2019-05-10T22:12:07.128Z,98800.72
2019-05-10T22:14:33.842Z,98801.55
2019-05-10T22:17:01.331Z,98806.53
2019-05-10T22:19:27.958Z,98803.52
2019-05-10T22:21:55.436Z,98805.02
2019-05-10T22:24:22.393Z,98796.52
2019-05-10T22:26:49.368Z,98809.48
2019-05-10T22:29:16.037Z,98811.48
2019-05-10T22:31:42.644Z,98812.16
2019-05-10T22:34:09.272Z,98807.16
2019-05-10T22:36:35.893Z,98810.31
2019-05-10T22:39:07.379Z,98810.63
2019-05-10T22:41:33.572Z,98814.13
2019-05-10T22:44:02.791Z,98811.80
2019-05-10T22:46:29.573Z,98811.29
2019-05-10T22:48:56.083Z,98816.11
2019-05-10T22:51:22.774Z,98816.77
2019-05-10T22:53:59.646Z,98814.95
2019-05-10T22:56:17.785Z,98814.09
2019-05-10T22:58:44.258Z,98817.43
2019-05-10T23:01:11.047Z,98823.78
2019-05-10T23:03:37.675Z,98824.11
2019-05-10T23:06:04.458Z,98820.47
2019-05-10T23:11:21.182Z,98821.77
2019-05-10T23:13:47.752Z,98823.78
2019-05-10T23:16:14.279Z,98818.77
2019-05-10T23:18:40.754Z,98822.45
2019-05-10T23:21:07.526Z,98821.11
2019-05-10T23:23:34.161Z,98822.94
2019-05-10T23:26:01.235Z,98827.11
2019-05-10T23:28:27.663Z,98824.75
2019-05-10T23:30:54.296Z,98822.75
2019-05-10T23:33:20.855Z,98817.77
2019-05-10T23:35:57.756Z,98818.43
2019-05-10T23:38:24.291Z,98814.61
2019-05-10T23:40:50.798Z,98819.92
2019-05-10T23:43:17.387Z,98809.57
2019-05-10T23:45:44.007Z,98817.74
2019-05-10T23:48:10.900Z,98819.39
2019-05-10T23:50:37.467Z,98821.06
2019-05-10T23:53:04.156Z,98819.06
2019-05-10T23:55:30.678Z,98812.56
2019-05-10T23:57:57.137Z,98816.69
